sensor_id;sensor_type;location;lat;lon;timestamp;P1;durP1;ratioP1;P2;durP2;ratioP2
29238;SDS011;16267;48.194;11.546;2022-12-05T00:01:23;24.40;;;13.07;;
29238;SDS011;16267;48.194;11.546;2022-12-05T00:03:52;25.48;;;13.25;;
29238;SDS011;16267;48.194;11.546;2022-12-05T00:06:20;24.27;;;13.88;;
29238;SDS011;16267;48.194;11.546;2022-12-05T00:08:48;24.20;;;12.48;;
29238;SDS011;16267;48.194;11.546;2022-12-05T00:11:15;25.13;;;12.23;;
29238;SDS011;16267;48.194;11.546;2022-12-05T00:13:44;23.88;;;12.55;;
29238;SDS011;16267;48.194;11.546;2022-12-05T00:16:12;25.20;;;14.13;;
29238;SDS011;16267;48.194;11.546;2022-12-05T00:18:41;23.27;;;13.05;;
29238;SDS011;16267;48.194;11.546;2022-12-05T00:21:11;21.20;;;12.07;;
29238;SDS011;16267;48.194;11.546;2022-12-05T00:23:49;25.42;;;12.88;;
29238;SDS011;16267;48.194;11.546;2022-12-05T00:26:16;21.50;;;12.77;;
29238;SDS011;16267;48.194;11.546;2022-12-05T00:28:43;25.30;;;13.93;;
29238;SDS011;16267;48.194;11.546;2022-12-05T00:31:10;26.17;;;13.05;;
29238;SDS011;16267;48.194;11.546;2022-12-05T00:36:09;26.30;;;12.40;;
29238;SDS011;16267;48.194;11.546;2022-12-05T00:38:39;22.70;;;12.90;;
29238;SDS011;16267;48.194;11.546;2022-12-05T00:41:07;24.55;;;13.57;;
29238;SDS011;16267;48.194;11.546;2022-12-05T00:43:37;26.80;;;13.43;;
29238;SDS011;16267;48.194;11.546;2022-12-05T00:46:04;23.45;;;13.00;;
29238;SDS011;16267;48.194;11.546;2022-12-05T00:48:35;25.63;;;13.90;;
29238;SDS011;16267;48.194;11.546;2022-12-05T00:51:06;25.38;;;13.52;;
29238;SDS011;16267;48.194;11.546;2022-12-05T00:53:40;27.35;;;13.52;;
29238;SDS011;16267;48.194;11.546;2022-12-05T00:56:11;26.08;;;13.50;;
29238;SDS011;16267;48.194;11.546;2022-12-05T00:58:42;25.40;;;13.77;;
29238;SDS011;16267;48.194;11.546;2022-12-05T01:01:09;24.77;;;13.80;;
29238;SDS011;16267;48.194;11.546;2022-12-05T01:04:05;25.00;;;14.18;;
29238;SDS011;16267;48.194;11.546;2022-12-05T01:06:37;24.98;;;14.32;;
29238;SDS011;16267;48.194;11.546;2022-12-05T01:09:04;28.63;;;13.98;;
29238;SDS011;16267;48.194;11.546;2022-12-05T01:11:34;27.42;;;15.10;;
29238;SDS011;16267;48.194;11.546;2022-12-05T01:14:00;27.85;;;14.30;;
29238;SDS011;16267;48.194;11.546;2022-12-05T01:16:27;32.90;;;14.77;;
29238;SDS011;16267;48.194;11.546;2022-12-05T01:18:57;26.83;;;14.60;;
29238;SDS011;16267;48.194;11.546;2022-12-05T01:21:27;27.40;;;14.38;;
29238;SDS011;16267;48.194;11.546;2022-12-05T01:23:52;27.55;;;14.48;;
29238;SDS011;16267;48.194;11.546;2022-12-05T01:26:19;27.40;;;14.57;;
29238;SDS011;16267;48.194;11.546;2022-12-05T01:28:46;28.58;;;14.85;;
29238;SDS011;16267;48.194;11.546;2022-12-05T01:36:20;29.40;;;14.82;;
29238;SDS011;16267;48.194;11.546;2022-12-05T01:38:47;29.48;;;14.00;;
29238;SDS011;16267;48.194;11.546;2022-12-05T01:41:16;28.67;;;15.15;;
29238;SDS011;16267;48.194;11.546;2022-12-05T01:46:19;28.70;;;15.20;;
29238;SDS011;16267;48.194;11.546;2022-12-05T01:48:45;26.98;;;14.00;;
29238;SDS011;16267;48.194;11.546;2022-12-05T01:51:11;28.10;;;14.85;;
29238;SDS011;16267;48.194;11.546;2022-12-05T01:53:37;28.30;;;15.43;;
29238;SDS011;16267;48.194;11.546;2022-12-05T01:56:03;30.23;;;15.07;;
29238;SDS011;16267;48.194;11.546;2022-12-05T01:58:30;28.80;;;15.07;;
29238;SDS011;16267;48.194;11.546;2022-12-05T02:01:02;28.13;;;15.10;;
29238;SDS011;16267;48.194;11.546;2022-12-05T02:03:29;27.58;;;14.57;;
29238;SDS011;16267;48.194;11.546;2022-12-05T02:05:55;29.52;;;15.30;;
29238;SDS011;16267;48.194;11.546;2022-12-05T02:08:22;28.23;;;15.00;;
29238;SDS011;16267;48.194;11.546;2022-12-05T02:10:52;25.38;;;14.35;;
29238;SDS011;16267;48.194;11.546;2022-12-05T02:19:10;29.10;;;14.35;;
29238;SDS011;16267;48.194;11.546;2022-12-05T02:30:45;26.42;;;13.65;;
29238;SDS011;16267;48.194;11.546;2022-12-05T02:33:42;27.30;;;14.40;;
29238;SDS011;16267;48.194;11.546;2022-12-05T02:36:22;28.35;;;14.07;;
29238;SDS011;16267;48.194;11.546;2022-12-05T02:38:56;29.50;;;14.93;;
29238;SDS011;16267;48.194;11.546;2022-12-05T02:41:48;28.65;;;14.43;;
29238;SDS011;16267;48.194;11.546;2022-12-05T02:44:34;28.55;;;14.82;;
29238;SDS011;16267;48.194;11.546;2022-12-05T02:47:08;30.50;;;15.88;;
29238;SDS011;16267;48.194;11.546;2022-12-05T02:49:36;35.15;;;15.82;;
29238;SDS011;16267;48.194;11.546;2022-12-05T02:52:07;33.83;;;15.82;;
29238;SDS011;16267;48.194;11.546;2022-12-05T02:54:38;31.70;;;16.05;;
29238;SDS011;16267;48.194;11.546;2022-12-05T02:57:08;38.55;;;15.30;;
29238;SDS011;16267;48.194;11.546;2022-12-05T02:59:35;30.42;;;14.90;;
29238;SDS011;16267;48.194;11.546;2022-12-05T03:02:01;32.58;;;15.38;;
29238;SDS011;16267;48.194;11.546;2022-12-05T03:04:27;30.77;;;14.82;;
29238;SDS011;16267;48.194;11.546;2022-12-05T03:06:59;35.35;;;16.00;;
29238;SDS011;16267;48.194;11.546;2022-12-05T03:09:38;30.95;;;15.48;;
29238;SDS011;16267;48.194;11.546;2022-12-05T03:12:16;33.25;;;15.70;;
29238;SDS011;16267;48.194;11.546;2022-12-05T03:14:51;30.67;;;15.05;;
29238;SDS011;16267;48.194;11.546;2022-12-05T03:17:35;29.35;;;14.10;;
29238;SDS011;16267;48.194;11.546;2022-12-05T03:20:27;31.10;;;16.10;;
29238;SDS011;16267;48.194;11.546;2022-12-05T03:23:02;27.80;;;14.90;;
29238;SDS011;16267;48.194;11.546;2022-12-05T03:25:56;31.80;;;15.85;;
29238;SDS011;16267;48.194;11.546;2022-12-05T03:35:05;29.70;;;16.85;;
29238;SDS011;16267;48.194;11.546;2022-12-05T03:37:44;27.92;;;15.43;;
29238;SDS011;16267;48.194;11.546;2022-12-05T03:43:33;33.17;;;16.58;;
29238;SDS011;16267;48.194;11.546;2022-12-05T03:52:08;27.40;;;15.07;;
29238;SDS011;16267;48.194;11.546;2022-12-05T03:54:38;27.42;;;14.85;;
29238;SDS011;16267;48.194;11.546;2022-12-05T03:57:22;26.27;;;15.02;;
29238;SDS011;16267;48.194;11.546;2022-12-05T04:02:46;27.63;;;14.23;;
29238;SDS011;16267;48.194;11.546;2022-12-05T04:08:23;28.27;;;14.15;;
29238;SDS011;16267;48.194;11.546;2022-12-05T04:10:52;22.90;;;13.88;;
29238;SDS011;16267;48.194;11.546;2022-12-05T04:13:29;27.77;;;14.50;;
29238;SDS011;16267;48.194;11.546;2022-12-05T04:16:08;26.88;;;15.00;;
29238;SDS011;16267;48.194;11.546;2022-12-05T04:21:48;26.50;;;13.85;;
29238;SDS011;16267;48.194;11.546;2022-12-05T04:24:19;27.92;;;14.35;;
29238;SDS011;16267;48.194;11.546;2022-12-05T04:30:12;26.85;;;14.75;;
29238;SDS011;16267;48.194;11.546;2022-12-05T04:35:25;28.48;;;14.95;;
29238;SDS011;16267;48.194;11.546;2022-12-05T04:38:14;29.75;;;14.80;;
29238;SDS011;16267;48.194;11.546;2022-12-05T04:41:13;28.88;;;15.05;;
29238;SDS011;16267;48.194;11.546;2022-12-05T04:43:47;27.00;;;13.98;;
29238;SDS011;16267;48.194;11.546;2022-12-05T04:46:15;30.40;;;14.95;;
29238;SDS011;16267;48.194;11.546;2022-12-05T04:48:44;26.00;;;14.10;;
29238;SDS011;16267;48.194;11.546;2022-12-05T04:51:17;22.67;;;11.13;;
29238;SDS011;16267;48.194;11.546;2022-12-05T04:53:54;27.52;;;15.10;;
29238;SDS011;16267;48.194;11.546;2022-12-05T04:56:30;31.02;;;15.90;;
29238;SDS011;16267;48.194;11.546;2022-12-05T04:59:01;26.92;;;14.68;;
29238;SDS011;16267;48.194;11.546;2022-12-05T05:01:41;26.25;;;15.43;;
29238;SDS011;16267;48.194;11.546;2022-12-05T05:04:25;29.05;;;14.48;;
29238;SDS011;16267;48.194;11.546;2022-12-05T05:07:11;24.87;;;11.97;;
29238;SDS011;16267;48.194;11.546;2022-12-05T05:09:38;25.77;;;13.88;;
29238;SDS011;16267;48.194;11.546;2022-12-05T05:12:05;31.98;;;14.60;;
29238;SDS011;16267;48.194;11.546;2022-12-05T05:14:31;27.88;;;14.98;;
29238;SDS011;16267;48.194;11.546;2022-12-05T05:16:57;29.13;;;15.57;;
29238;SDS011;16267;48.194;11.546;2022-12-05T05:19:23;35.85;;;15.68;;
29238;SDS011;16267;48.194;11.546;2022-12-05T05:21:49;30.40;;;14.85;;
29238;SDS011;16267;48.194;11.546;2022-12-05T05:24:16;33.10;;;15.32;;
29238;SDS011;16267;48.194;11.546;2022-12-05T05:26:43;37.83;;;15.27;;
29238;SDS011;16267;48.194;11.546;2022-12-05T05:29:10;30.92;;;16.55;;
29238;SDS011;16267;48.194;11.546;2022-12-05T05:31:37;29.65;;;15.52;;
29238;SDS011;16267;48.194;11.546;2022-12-05T05:34:05;35.25;;;16.45;;
29238;SDS011;16267;48.194;11.546;2022-12-05T05:36:32;33.50;;;16.48;;
29238;SDS011;16267;48.194;11.546;2022-12-05T05:38:59;31.55;;;16.67;;
29238;SDS011;16267;48.194;11.546;2022-12-05T05:41:34;33.80;;;15.90;;
29238;SDS011;16267;48.194;11.546;2022-12-05T05:44:00;36.28;;;16.52;;
29238;SDS011;16267;48.194;11.546;2022-12-05T05:46:28;30.20;;;15.63;;
29238;SDS011;16267;48.194;11.546;2022-12-05T05:48:56;31.58;;;16.08;;
29238;SDS011;16267;48.194;11.546;2022-12-05T05:51:23;31.60;;;16.00;;
29238;SDS011;16267;48.194;11.546;2022-12-05T05:53:52;35.85;;;17.17;;
29238;SDS011;16267;48.194;11.546;2022-12-05T05:56:18;35.95;;;16.95;;
29238;SDS011;16267;48.194;11.546;2022-12-05T05:58:45;33.75;;;16.17;;
29238;SDS011;16267;48.194;11.546;2022-12-05T06:01:12;30.35;;;15.77;;
29238;SDS011;16267;48.194;11.546;2022-12-05T06:03:40;33.63;;;16.63;;
29238;SDS011;16267;48.194;11.546;2022-12-05T06:06:08;37.72;;;17.95;;
29238;SDS011;16267;48.194;11.546;2022-12-05T06:08:37;34.30;;;16.30;;
29238;SDS011;16267;48.194;11.546;2022-12-05T06:11:26;32.67;;;16.17;;
29238;SDS011;16267;48.194;11.546;2022-12-05T06:13:53;36.40;;;15.68;;
29238;SDS011;16267;48.194;11.546;2022-12-05T06:16:20;31.92;;;16.60;;
29238;SDS011;16267;48.194;11.546;2022-12-05T06:18:46;32.22;;;16.60;;
29238;SDS011;16267;48.194;11.546;2022-12-05T06:21:13;39.17;;;17.00;;
29238;SDS011;16267;48.194;11.546;2022-12-05T06:23:39;37.97;;;16.65;;
29238;SDS011;16267;48.194;11.546;2022-12-05T06:26:08;36.80;;;17.52;;
29238;SDS011;16267;48.194;11.546;2022-12-05T06:28:38;30.45;;;16.00;;
29238;SDS011;16267;48.194;11.546;2022-12-05T06:31:08;30.90;;;16.67;;
29238;SDS011;16267;48.194;11.546;2022-12-05T06:33:36;37.08;;;17.75;;
29238;SDS011;16267;48.194;11.546;2022-12-05T06:36:10;33.72;;;16.90;;
29238;SDS011;16267;48.194;11.546;2022-12-05T06:38:41;33.58;;;16.45;;
29238;SDS011;16267;48.194;11.546;2022-12-05T06:41:08;30.58;;;15.95;;
29238;SDS011;16267;48.194;11.546;2022-12-05T06:43:41;33.00;;;15.30;;
29238;SDS011;16267;48.194;11.546;2022-12-05T06:46:07;30.58;;;15.88;;
29238;SDS011;16267;48.194;11.546;2022-12-05T06:48:35;31.10;;;16.05;;
29238;SDS011;16267;48.194;11.546;2022-12-05T06:51:01;31.50;;;16.02;;
29238;SDS011;16267;48.194;11.546;2022-12-05T06:53:28;31.83;;;17.25;;
29238;SDS011;16267;48.194;11.546;2022-12-05T06:56:01;30.55;;;15.00;;
29238;SDS011;16267;48.194;11.546;2022-12-05T06:58:29;33.78;;;16.45;;
29238;SDS011;16267;48.194;11.546;2022-12-05T07:00:56;39.65;;;17.52;;
29238;SDS011;16267;48.194;11.546;2022-12-05T07:03:40;38.22;;;17.65;;
29238;SDS011;16267;48.194;11.546;2022-12-05T07:06:08;37.97;;;17.75;;
29238;SDS011;16267;48.194;11.546;2022-12-05T07:08:34;36.88;;;16.83;;
29238;SDS011;16267;48.194;11.546;2022-12-05T07:11:03;33.90;;;16.23;;
29238;SDS011;16267;48.194;11.546;2022-12-05T07:13:29;31.45;;;15.40;;
29238;SDS011;16267;48.194;11.546;2022-12-05T07:15:55;32.13;;;16.13;;
29238;SDS011;16267;48.194;11.546;2022-12-05T07:18:22;34.00;;;16.90;;
29238;SDS011;16267;48.194;11.546;2022-12-05T07:20:59;34.08;;;17.25;;
29238;SDS011;16267;48.194;11.546;2022-12-05T07:23:27;28.80;;;15.05;;
29238;SDS011;16267;48.194;11.546;2022-12-05T07:25:53;30.80;;;15.90;;
29238;SDS011;16267;48.194;11.546;2022-12-05T07:28:19;31.15;;;16.75;;
29238;SDS011;16267;48.194;11.546;2022-12-05T07:30:45;33.78;;;17.02;;
29238;SDS011;16267;48.194;11.546;2022-12-05T07:33:11;32.08;;;16.38;;
29238;SDS011;16267;48.194;11.546;2022-12-05T07:35:37;29.25;;;16.83;;
29238;SDS011;16267;48.194;11.546;2022-12-05T07:38:02;32.88;;;16.77;;
29238;SDS011;16267;48.194;11.546;2022-12-05T07:40:28;32.78;;;16.70;;
29238;SDS011;16267;48.194;11.546;2022-12-05T07:42:54;32.58;;;16.38;;
29238;SDS011;16267;48.194;11.546;2022-12-05T07:45:20;34.05;;;16.73;;
29238;SDS011;16267;48.194;11.546;2022-12-05T07:47:46;30.60;;;16.10;;
29238;SDS011;16267;48.194;11.546;2022-12-05T07:50:12;34.15;;;16.30;;
29238;SDS011;16267;48.194;11.546;2022-12-05T07:52:39;36.15;;;17.23;;
29238;SDS011;16267;48.194;11.546;2022-12-05T07:55:05;32.95;;;16.70;;
29238;SDS011;16267;48.194;11.546;2022-12-05T07:57:32;31.65;;;17.08;;
29238;SDS011;16267;48.194;11.546;2022-12-05T07:59:58;33.85;;;17.13;;
29238;SDS011;16267;48.194;11.546;2022-12-05T08:02:24;32.75;;;16.08;;
29238;SDS011;16267;48.194;11.546;2022-12-05T08:04:50;34.25;;;16.52;;
29238;SDS011;16267;48.194;11.546;2022-12-05T08:07:16;35.00;;;16.88;;
29238;SDS011;16267;48.194;11.546;2022-12-05T08:09:41;34.88;;;16.75;;
29238;SDS011;16267;48.194;11.546;2022-12-05T08:12:07;33.25;;;16.65;;
29238;SDS011;16267;48.194;11.546;2022-12-05T08:14:33;30.08;;;15.98;;
29238;SDS011;16267;48.194;11.546;2022-12-05T08:16:59;31.40;;;17.23;;
29238;SDS011;16267;48.194;11.546;2022-12-05T08:19:24;32.22;;;16.45;;
29238;SDS011;16267;48.194;11.546;2022-12-05T08:21:52;35.03;;;16.70;;
29238;SDS011;16267;48.194;11.546;2022-12-05T08:24:19;33.42;;;16.13;;
29238;SDS011;16267;48.194;11.546;2022-12-05T08:26:44;35.22;;;17.15;;
29238;SDS011;16267;48.194;11.546;2022-12-05T08:29:11;36.13;;;17.15;;
29238;SDS011;16267;48.194;11.546;2022-12-05T08:31:49;32.90;;;17.02;;
29238;SDS011;16267;48.194;11.546;2022-12-05T08:34:16;33.75;;;17.17;;
29238;SDS011;16267;48.194;11.546;2022-12-05T08:36:44;33.65;;;17.10;;
29238;SDS011;16267;48.194;11.546;2022-12-05T08:39:11;37.90;;;17.77;;
29238;SDS011;16267;48.194;11.546;2022-12-05T08:41:40;37.47;;;17.80;;
29238;SDS011;16267;48.194;11.546;2022-12-05T08:44:07;31.40;;;16.40;;
29238;SDS011;16267;48.194;11.546;2022-12-05T08:46:35;36.30;;;17.92;;
29238;SDS011;16267;48.194;11.546;2022-12-05T08:49:03;33.00;;;17.08;;
29238;SDS011;16267;48.194;11.546;2022-12-05T08:51:30;30.80;;;17.38;;
29238;SDS011;16267;48.194;11.546;2022-12-05T08:53:56;34.50;;;17.58;;
29238;SDS011;16267;48.194;11.546;2022-12-05T08:56:22;33.05;;;17.17;;
29238;SDS011;16267;48.194;11.546;2022-12-05T08:58:48;41.13;;;17.83;;
29238;SDS011;16267;48.194;11.546;2022-12-05T09:01:15;30.70;;;16.10;;
29238;SDS011;16267;48.194;11.546;2022-12-05T09:03:46;28.17;;;15.85;;
29238;SDS011;16267;48.194;11.546;2022-12-05T09:06:13;27.23;;;14.30;;
29238;SDS011;16267;48.194;11.546;2022-12-05T09:08:48;26.05;;;14.68;;
29238;SDS011;16267;48.194;11.546;2022-12-05T09:11:24;25.92;;;14.68;;
29238;SDS011;16267;48.194;11.546;2022-12-05T09:13:54;27.08;;;14.90;;
29238;SDS011;16267;48.194;11.546;2022-12-05T09:16:26;26.95;;;14.73;;
29238;SDS011;16267;48.194;11.546;2022-12-05T09:18:55;24.70;;;14.07;;
29238;SDS011;16267;48.194;11.546;2022-12-05T09:21:22;27.45;;;14.70;;
29238;SDS011;16267;48.194;11.546;2022-12-05T09:23:51;26.85;;;15.68;;
29238;SDS011;16267;48.194;11.546;2022-12-05T09:26:19;25.00;;;13.90;;
29238;SDS011;16267;48.194;11.546;2022-12-05T09:28:50;17.83;;;10.10;;
29238;SDS011;16267;48.194;11.546;2022-12-05T09:31:17;24.95;;;14.52;;
29238;SDS011;16267;48.194;11.546;2022-12-05T09:33:46;25.30;;;14.57;;
29238;SDS011;16267;48.194;11.546;2022-12-05T09:36:15;25.55;;;14.15;;
29238;SDS011;16267;48.194;11.546;2022-12-05T09:38:49;26.17;;;14.82;;
29238;SDS011;16267;48.194;11.546;2022-12-05T09:47:37;18.75;;;10.98;;
29238;SDS011;16267;48.194;11.546;2022-12-05T09:50:50;25.77;;;14.63;;
29238;SDS011;16267;48.194;11.546;2022-12-05T09:53:34;26.45;;;14.70;;
29238;SDS011;16267;48.194;11.546;2022-12-05T09:58:54;26.40;;;14.02;;
29238;SDS011;16267;48.194;11.546;2022-12-05T10:10:20;25.25;;;14.60;;
29238;SDS011;16267;48.194;11.546;2022-12-05T10:13:15;29.75;;;14.93;;
29238;SDS011;16267;48.194;11.546;2022-12-05T10:22:00;29.90;;;15.80;;
29238;SDS011;16267;48.194;11.546;2022-12-05T10:24:41;28.02;;;16.15;;
29238;SDS011;16267;48.194;11.546;2022-12-05T10:27:18;27.05;;;15.57;;
29238;SDS011;16267;48.194;11.546;2022-12-05T10:29:58;26.10;;;15.13;;
29238;SDS011;16267;48.194;11.546;2022-12-05T10:32:51;26.15;;;14.07;;
29238;SDS011;16267;48.194;11.546;2022-12-05T10:35:26;24.77;;;15.32;;
29238;SDS011;16267;48.194;11.546;2022-12-05T10:40:38;21.23;;;11.45;;
29238;SDS011;16267;48.194;11.546;2022-12-05T10:43:09;24.23;;;15.15;;
29238;SDS011;16267;48.194;11.546;2022-12-05T10:45:41;28.27;;;14.38;;
29238;SDS011;16267;48.194;11.546;2022-12-05T10:48:10;32.75;;;19.27;;
29238;SDS011;16267;48.194;11.546;2022-12-05T10:50:38;28.88;;;16.98;;
29238;SDS011;16267;48.194;11.546;2022-12-05T10:53:06;28.50;;;16.58;;
29238;SDS011;16267;48.194;11.546;2022-12-05T10:55:40;23.67;;;15.73;;
29238;SDS011;16267;48.194;11.546;2022-12-05T11:00:50;25.25;;;15.57;;
29238;SDS011;16267;48.194;11.546;2022-12-05T11:03:33;25.88;;;15.07;;
29238;SDS011;16267;48.194;11.546;2022-12-05T11:06:13;23.88;;;15.10;;
29238;SDS011;16267;48.194;11.546;2022-12-05T11:08:41;25.08;;;14.95;;
29238;SDS011;16267;48.194;11.546;2022-12-05T11:11:20;27.83;;;15.63;;
29238;SDS011;16267;48.194;11.546;2022-12-05T11:14:20;26.63;;;16.02;;
29238;SDS011;16267;48.194;11.546;2022-12-05T11:16:55;25.73;;;15.30;;
29238;SDS011;16267;48.194;11.546;2022-12-05T11:22:03;23.13;;;14.32;;
29238;SDS011;16267;48.194;11.546;2022-12-05T11:24:38;23.45;;;15.43;;
29238;SDS011;16267;48.194;11.546;2022-12-05T11:30:28;23.13;;;15.07;;
29238;SDS011;16267;48.194;11.546;2022-12-05T11:32:37;23.73;;;14.05;;
29238;SDS011;16267;48.194;11.546;2022-12-05T11:37:45;22.33;;;14.90;;
29238;SDS011;16267;48.194;11.546;2022-12-05T11:40:24;22.33;;;14.32;;
29238;SDS011;16267;48.194;11.546;2022-12-05T12:01:52;28.40;;;12.90;;
29238;SDS011;16267;48.194;11.546;2022-12-05T12:04:57;22.75;;;12.63;;
29238;SDS011;16267;48.194;11.546;2022-12-05T12:22:44;17.70;;;10.82;;
29238;SDS011;16267;48.194;11.546;2022-12-05T12:25:38;22.45;;;13.38;;
29238;SDS011;16267;48.194;11.546;2022-12-05T12:37:24;17.88;;;11.63;;
29238;SDS011;16267;48.194;11.546;2022-12-05T12:40:03;18.23;;;11.27;;
29238;SDS011;16267;48.194;11.546;2022-12-05T12:42:57;16.08;;;10.27;;
29238;SDS011;16267;48.194;11.546;2022-12-05T12:51:27;14.15;;;9.88;;
29238;SDS011;16267;48.194;11.546;2022-12-05T13:02:43;15.23;;;8.57;;
29238;SDS011;16267;48.194;11.546;2022-12-05T13:10:58;13.70;;;8.13;;
29238;SDS011;16267;48.194;11.546;2022-12-05T13:13:29;13.25;;;8.02;;
29238;SDS011;16267;48.194;11.546;2022-12-05T13:16:03;16.73;;;8.10;;
29238;SDS011;16267;48.194;11.546;2022-12-05T13:18:32;14.60;;;8.10;;
29238;SDS011;16267;48.194;11.546;2022-12-05T13:21:00;18.23;;;8.25;;
29238;SDS011;16267;48.194;11.546;2022-12-05T13:23:35;13.05;;;7.90;;
29238;SDS011;16267;48.194;11.546;2022-12-05T13:26:12;15.05;;;8.32;;
29238;SDS011;16267;48.194;11.546;2022-12-05T13:28:45;13.90;;;7.95;;
29238;SDS011;16267;48.194;11.546;2022-12-05T13:31:17;11.60;;;7.65;;
29238;SDS011;16267;48.194;11.546;2022-12-05T13:33:48;10.93;;;7.05;;
29238;SDS011;16267;48.194;11.546;2022-12-05T13:44:49;13.63;;;6.45;;
29238;SDS011;16267;48.194;11.546;2022-12-05T13:53:40;7.28;;;4.80;;
29238;SDS011;16267;48.194;11.546;2022-12-05T13:58:50;7.18;;;4.60;;
29238;SDS011;16267;48.194;11.546;2022-12-05T14:12:29;14.63;;;5.22;;
29238;SDS011;16267;48.194;11.546;2022-12-05T14:17:23;11.10;;;5.22;;
29238;SDS011;16267;48.194;11.546;2022-12-05T14:20:04;16.90;;;9.13;;
29238;SDS011;16267;48.194;11.546;2022-12-05T14:23:07;11.68;;;7.50;;
29238;SDS011;16267;48.194;11.546;2022-12-05T14:25:58;7.72;;;5.05;;
29238;SDS011;16267;48.194;11.546;2022-12-05T14:35:04;10.93;;;6.10;;
29238;SDS011;16267;48.194;11.546;2022-12-05T14:38:04;6.38;;;4.45;;
29238;SDS011;16267;48.194;11.546;2022-12-05T14:40:31;8.63;;;6.30;;
29238;SDS011;16267;48.194;11.546;2022-12-05T14:50:50;9.93;;;5.53;;
29238;SDS011;16267;48.194;11.546;2022-12-05T14:56:05;11.05;;;5.18;;
29238;SDS011;16267;48.194;11.546;2022-12-05T15:01:49;17.73;;;7.68;;
29238;SDS011;16267;48.194;11.546;2022-12-05T15:07:03;9.63;;;6.40;;
29238;SDS011;16267;48.194;11.546;2022-12-05T15:09:36;7.22;;;4.90;;
29238;SDS011;16267;48.194;11.546;2022-12-05T15:12:12;8.70;;;6.03;;
29238;SDS011;16267;48.194;11.546;2022-12-05T15:23:56;9.23;;;4.80;;
29238;SDS011;16267;48.194;11.546;2022-12-05T15:29:16;10.45;;;6.97;;
29238;SDS011;16267;48.194;11.546;2022-12-05T15:31:53;11.05;;;6.53;;
29238;SDS011;16267;48.194;11.546;2022-12-05T15:34:27;12.98;;;8.20;;
29238;SDS011;16267;48.194;11.546;2022-12-05T15:39:59;16.80;;;10.55;;
29238;SDS011;16267;48.194;11.546;2022-12-05T15:42:44;13.50;;;9.98;;
29238;SDS011;16267;48.194;11.546;2022-12-05T15:45:16;14.38;;;7.95;;
29238;SDS011;16267;48.194;11.546;2022-12-05T15:47:55;11.20;;;7.38;;
29238;SDS011;16267;48.194;11.546;2022-12-05T15:50:29;8.55;;;6.32;;
29238;SDS011;16267;48.194;11.546;2022-12-05T16:01:06;9.15;;;5.70;;
29238;SDS011;16267;48.194;11.546;2022-12-05T16:06:38;12.98;;;6.57;;
29238;SDS011;16267;48.194;11.546;2022-12-05T16:09:16;11.13;;;7.70;;
29238;SDS011;16267;48.194;11.546;2022-12-05T16:11:56;9.57;;;6.82;;
29238;SDS011;16267;48.194;11.546;2022-12-05T16:14:36;12.43;;;7.13;;
29238;SDS011;16267;48.194;11.546;2022-12-05T16:17:03;10.80;;;7.15;;
29238;SDS011;16267;48.194;11.546;2022-12-05T16:19:31;8.57;;;6.35;;
29238;SDS011;16267;48.194;11.546;2022-12-05T16:27:20;11.13;;;5.97;;
29238;SDS011;16267;48.194;11.546;2022-12-05T16:32:46;11.80;;;6.70;;
29238;SDS011;16267;48.194;11.546;2022-12-05T16:35:32;11.77;;;7.20;;
29238;SDS011;16267;48.194;11.546;2022-12-05T16:38:22;10.82;;;7.18;;
29238;SDS011;16267;48.194;11.546;2022-12-05T16:48:40;19.90;;;9.30;;
29238;SDS011;16267;48.194;11.546;2022-12-05T16:51:21;13.05;;;8.43;;
29238;SDS011;16267;48.194;11.546;2022-12-05T16:53:53;8.93;;;6.70;;
29238;SDS011;16267;48.194;11.546;2022-12-05T16:56:30;14.65;;;7.07;;
29238;SDS011;16267;48.194;11.546;2022-12-05T16:58:57;10.63;;;6.95;;
29238;SDS011;16267;48.194;11.546;2022-12-05T17:01:30;9.50;;;6.88;;
29238;SDS011;16267;48.194;11.546;2022-12-05T17:03:57;9.80;;;6.65;;
29238;SDS011;16267;48.194;11.546;2022-12-05T17:06:24;13.98;;;7.07;;
29238;SDS011;16267;48.194;11.546;2022-12-05T17:08:51;9.57;;;6.45;;
29238;SDS011;16267;48.194;11.546;2022-12-05T17:11:19;10.57;;;6.82;;
29238;SDS011;16267;48.194;11.546;2022-12-05T17:13:49;10.13;;;6.75;;
29238;SDS011;16267;48.194;11.546;2022-12-05T17:16:17;7.43;;;5.65;;
29238;SDS011;16267;48.194;11.546;2022-12-05T17:18:44;9.98;;;6.22;;
29238;SDS011;16267;48.194;11.546;2022-12-05T17:21:14;7.35;;;5.65;;
29238;SDS011;16267;48.194;11.546;2022-12-05T17:23:43;9.93;;;6.93;;
29238;SDS011;16267;48.194;11.546;2022-12-05T17:26:14;8.15;;;6.07;;
29238;SDS011;16267;48.194;11.546;2022-12-05T17:28:42;12.55;;;6.82;;
29238;SDS011;16267;48.194;11.546;2022-12-05T17:31:09;13.50;;;8.18;;
29238;SDS011;16267;48.194;11.546;2022-12-05T17:33:40;10.65;;;7.20;;
29238;SDS011;16267;48.194;11.546;2022-12-05T17:36:06;13.07;;;7.03;;
29238;SDS011;16267;48.194;11.546;2022-12-05T17:38:32;9.63;;;6.35;;
29238;SDS011;16267;48.194;11.546;2022-12-05T17:40:58;9.00;;;6.07;;
29238;SDS011;16267;48.194;11.546;2022-12-05T17:43:24;8.57;;;5.63;;
29238;SDS011;16267;48.194;11.546;2022-12-05T17:45:49;5.55;;;3.88;;
29238;SDS011;16267;48.194;11.546;2022-12-05T17:48:16;5.88;;;4.32;;
29238;SDS011;16267;48.194;11.546;2022-12-05T17:50:43;7.63;;;3.97;;
29238;SDS011;16267;48.194;11.546;2022-12-05T17:53:12;6.25;;;3.60;;
29238;SDS011;16267;48.194;11.546;2022-12-05T17:55:42;5.40;;;4.30;;
29238;SDS011;16267;48.194;11.546;2022-12-05T17:58:08;5.97;;;4.15;;
29238;SDS011;16267;48.194;11.546;2022-12-05T18:00:35;6.45;;;3.35;;
29238;SDS011;16267;48.194;11.546;2022-12-05T18:03:01;5.13;;;3.33;;
29238;SDS011;16267;48.194;11.546;2022-12-05T18:05:27;5.50;;;3.75;;
29238;SDS011;16267;48.194;11.546;2022-12-05T18:08:00;5.40;;;3.30;;
29238;SDS011;16267;48.194;11.546;2022-12-05T18:10:25;4.50;;;3.23;;
29238;SDS011;16267;48.194;11.546;2022-12-05T18:12:51;4.97;;;3.60;;
29238;SDS011;16267;48.194;11.546;2022-12-05T18:15:17;5.00;;;3.42;;
29238;SDS011;16267;48.194;11.546;2022-12-05T18:17:43;5.97;;;3.78;;
29238;SDS011;16267;48.194;11.546;2022-12-05T18:20:10;6.18;;;3.65;;
29238;SDS011;16267;48.194;11.546;2022-12-05T18:22:39;6.65;;;3.83;;
29238;SDS011;16267;48.194;11.546;2022-12-05T18:25:05;6.95;;;3.35;;
29238;SDS011;16267;48.194;11.546;2022-12-05T18:27:32;5.40;;;2.97;;
29238;SDS011;16267;48.194;11.546;2022-12-05T18:29:59;6.45;;;3.50;;
29238;SDS011;16267;48.194;11.546;2022-12-05T18:32:25;4.97;;;3.13;;
29238;SDS011;16267;48.194;11.546;2022-12-05T18:34:51;4.22;;;3.28;;
29238;SDS011;16267;48.194;11.546;2022-12-05T18:37:17;6.20;;;3.15;;
29238;SDS011;16267;48.194;11.546;2022-12-05T18:39:43;5.90;;;3.40;;
29238;SDS011;16267;48.194;11.546;2022-12-05T18:42:09;5.30;;;3.28;;
29238;SDS011;16267;48.194;11.546;2022-12-05T18:44:35;5.45;;;3.20;;
29238;SDS011;16267;48.194;11.546;2022-12-05T18:47:01;6.75;;;3.65;;
29238;SDS011;16267;48.194;11.546;2022-12-05T18:49:27;4.93;;;3.03;;
29238;SDS011;16267;48.194;11.546;2022-12-05T18:51:53;6.22;;;3.08;;